Decoded Metar for K24A ( in ) (IATA:) | Meteo·Mobile Aviation Weather
aviador You're here:

K24A Decoded Metar

in
Report Time2018-08-22 05:10:00
UTC Time2018-08-22 05:38:04
Flight Rules vfr VFR
Wind350° at 03 kt
W.Rank350° ranks 18
Current wind is below 350° avg. (4.5)
Visibility9999 m
Phenomena:N/A
Clouds:Scattered 060 Hf
Expected CloudBase > 800 ft AGL from Temp-Dew spread
CeilingNone
Temp19°C
Dew Point17°C (88% RH)
QNH1019 hPa
Raw Report
METAR K24A 220510Z AUTO 35003KT 10SM SCT060 19/17 A3010 RMK AO2 T01940170=

Extra information for K24A:More info

Social comments